sensor_id;sensor_type;location;lat;lon;timestamp;temperature;humidity
65582;DHT22;52231;40.090;18.348;2022-07-17T00:02:09;23.20;60.30
65582;DHT22;52231;40.090;18.348;2022-07-17T00:04:37;23.20;60.50
65582;DHT22;52231;40.090;18.348;2022-07-17T00:07:05;23.20;60.80
65582;DHT22;52231;40.090;18.348;2022-07-17T00:09:33;23.20;60.90
65582;DHT22;52231;40.090;18.348;2022-07-17T00:12:01;23.20;60.70
65582;DHT22;52231;40.090;18.348;2022-07-17T00:14:29;23.10;60.60
65582;DHT22;52231;40.090;18.348;2022-07-17T00:16:57;23.00;60.60
65582;DHT22;52231;40.090;18.348;2022-07-17T00:19:26;23.00;61.00
65582;DHT22;52231;40.090;18.348;2022-07-17T00:21:54;22.90;61.10
65582;DHT22;52231;40.090;18.348;2022-07-17T00:24:23;22.90;61.30
65582;DHT22;52231;40.090;18.348;2022-07-17T00:26:51;22.90;61.30
65582;DHT22;52231;40.090;18.348;2022-07-17T00:29:20;22.90;61.40
65582;DHT22;52231;40.090;18.348;2022-07-17T00:31:48;22.80;61.40
65582;DHT22;52231;40.090;18.348;2022-07-17T00:34:16;22.80;61.70
65582;DHT22;52231;40.090;18.348;2022-07-17T00:36:44;22.80;61.60
65582;DHT22;52231;40.090;18.348;2022-07-17T00:39:12;22.70;61.50
65582;DHT22;52231;40.090;18.348;2022-07-17T00:41:43;22.60;61.60
65582;DHT22;52231;40.090;18.348;2022-07-17T00:44:14;22.60;62.00
65582;DHT22;52231;40.090;18.348;2022-07-17T00:46:42;22.60;62.20
65582;DHT22;52231;40.090;18.348;2022-07-17T00:49:10;22.50;62.40
65582;DHT22;52231;40.090;18.348;2022-07-17T00:51:39;22.50;62.50
65582;DHT22;52231;40.090;18.348;2022-07-17T00:54:08;22.40;62.80
65582;DHT22;52231;40.090;18.348;2022-07-17T00:56:40;22.40;62.90
65582;DHT22;52231;40.090;18.348;2022-07-17T00:59:09;22.30;63.10
65582;DHT22;52231;40.090;18.348;2022-07-17T01:01:38;22.30;63.30
65582;DHT22;52231;40.090;18.348;2022-07-17T01:04:07;22.20;63.90
65582;DHT22;52231;40.090;18.348;2022-07-17T01:06:35;22.20;64.20
65582;DHT22;52231;40.090;18.348;2022-07-17T01:09:03;22.10;64.60
65582;DHT22;52231;40.090;18.348;2022-07-17T01:11:32;22.20;64.50
65582;DHT22;52231;40.090;18.348;2022-07-17T01:14:01;22.20;64.30
65582;DHT22;52231;40.090;18.348;2022-07-17T01:16:29;22.20;64.00
65582;DHT22;52231;40.090;18.348;2022-07-17T01:18:58;22.20;64.10
65582;DHT22;52231;40.090;18.348;2022-07-17T01:21:40;22.10;64.10
65582;DHT22;52231;40.090;18.348;2022-07-17T01:24:09;22.10;64.00
65582;DHT22;52231;40.090;18.348;2022-07-17T01:26:41;22.10;64.40
65582;DHT22;52231;40.090;18.348;2022-07-17T01:29:11;22.00;64.40
65582;DHT22;52231;40.090;18.348;2022-07-17T01:31:40;22.00;64.50
65582;DHT22;52231;40.090;18.348;2022-07-17T01:34:10;22.00;64.80
65582;DHT22;52231;40.090;18.348;2022-07-17T01:36:40;22.00;64.70
65582;DHT22;52231;40.090;18.348;2022-07-17T01:39:09;22.00;64.60
65582;DHT22;52231;40.090;18.348;2022-07-17T01:41:37;22.00;64.60
65582;DHT22;52231;40.090;18.348;2022-07-17T01:44:05;22.00;64.60
65582;DHT22;52231;40.090;18.348;2022-07-17T01:46:35;22.00;64.60
65582;DHT22;52231;40.090;18.348;2022-07-17T01:49:03;21.90;64.50
65582;DHT22;52231;40.090;18.348;2022-07-17T01:51:31;21.90;64.60
65582;DHT22;52231;40.090;18.348;2022-07-17T01:53:59;22.00;64.80
65582;DHT22;52231;40.090;18.348;2022-07-17T01:56:28;22.00;64.90
65582;DHT22;52231;40.090;18.348;2022-07-17T01:58:55;22.00;65.10
65582;DHT22;52231;40.090;18.348;2022-07-17T02:01:23;21.90;65.00
65582;DHT22;52231;40.090;18.348;2022-07-17T02:03:52;21.90;64.70
65582;DHT22;52231;40.090;18.348;2022-07-17T02:06:20;21.90;64.60
65582;DHT22;52231;40.090;18.348;2022-07-17T02:08:48;21.80;64.80
65582;DHT22;52231;40.090;18.348;2022-07-17T02:11:18;21.80;65.00
65582;DHT22;52231;40.090;18.348;2022-07-17T02:13:46;21.80;65.00
65582;DHT22;52231;40.090;18.348;2022-07-17T02:16:15;21.80;65.20
65582;DHT22;52231;40.090;18.348;2022-07-17T02:18:43;21.80;65.00
65582;DHT22;52231;40.090;18.348;2022-07-17T02:21:11;21.80;64.60
65582;DHT22;52231;40.090;18.348;2022-07-17T02:23:40;21.70;64.40
65582;DHT22;52231;40.090;18.348;2022-07-17T02:26:08;21.70;64.70
65582;DHT22;52231;40.090;18.348;2022-07-17T02:28:38;21.60;65.10
65582;DHT22;52231;40.090;18.348;2022-07-17T02:31:06;21.60;65.30
65582;DHT22;52231;40.090;18.348;2022-07-17T02:33:35;21.60;65.50
65582;DHT22;52231;40.090;18.348;2022-07-17T02:36:03;21.50;65.70
65582;DHT22;52231;40.090;18.348;2022-07-17T02:38:31;21.50;65.70
65582;DHT22;52231;40.090;18.348;2022-07-17T02:41:00;21.40;65.60
65582;DHT22;52231;40.090;18.348;2022-07-17T02:43:28;21.30;65.70
65582;DHT22;52231;40.090;18.348;2022-07-17T02:46:00;21.40;66.20
65582;DHT22;52231;40.090;18.348;2022-07-17T02:48:28;21.30;66.60
65582;DHT22;52231;40.090;18.348;2022-07-17T02:50:57;21.30;66.70
65582;DHT22;52231;40.090;18.348;2022-07-17T02:53:25;21.30;66.90
65582;DHT22;52231;40.090;18.348;2022-07-17T02:55:53;21.30;67.20
65582;DHT22;52231;40.090;18.348;2022-07-17T02:58:21;21.40;66.80
65582;DHT22;52231;40.090;18.348;2022-07-17T03:00:49;21.30;66.60
65582;DHT22;52231;40.090;18.348;2022-07-17T03:03:17;21.30;66.70
65582;DHT22;52231;40.090;18.348;2022-07-17T03:05:49;21.30;66.90
65582;DHT22;52231;40.090;18.348;2022-07-17T03:08:17;21.30;67.00
65582;DHT22;52231;40.090;18.348;2022-07-17T03:10:47;21.30;67.30
65582;DHT22;52231;40.090;18.348;2022-07-17T03:13:15;21.30;67.50
65582;DHT22;52231;40.090;18.348;2022-07-17T03:15:43;21.30;67.60
65582;DHT22;52231;40.090;18.348;2022-07-17T03:18:11;21.30;67.70
65582;DHT22;52231;40.090;18.348;2022-07-17T03:20:39;21.30;67.60
65582;DHT22;52231;40.090;18.348;2022-07-17T03:23:07;21.30;67.60
65582;DHT22;52231;40.090;18.348;2022-07-17T03:25:35;21.30;67.60
65582;DHT22;52231;40.090;18.348;2022-07-17T03:28:03;21.30;67.40
65582;DHT22;52231;40.090;18.348;2022-07-17T03:30:32;21.30;66.90
65582;DHT22;52231;40.090;18.348;2022-07-17T03:33:00;21.20;67.00
65582;DHT22;52231;40.090;18.348;2022-07-17T03:35:28;21.30;66.80
65582;DHT22;52231;40.090;18.348;2022-07-17T03:37:56;21.30;67.00
65582;DHT22;52231;40.090;18.348;2022-07-17T03:40:24;21.30;67.10
65582;DHT22;52231;40.090;18.348;2022-07-17T03:42:52;21.30;67.30
65582;DHT22;52231;40.090;18.348;2022-07-17T03:45:20;21.30;67.40
65582;DHT22;52231;40.090;18.348;2022-07-17T03:47:49;21.30;66.90
65582;DHT22;52231;40.090;18.348;2022-07-17T03:50:17;21.30;66.60
65582;DHT22;52231;40.090;18.348;2022-07-17T03:52:45;21.40;66.50
65582;DHT22;52231;40.090;18.348;2022-07-17T03:55:13;21.50;66.30
65582;DHT22;52231;40.090;18.348;2022-07-17T03:57:42;21.70;65.80
65582;DHT22;52231;40.090;18.348;2022-07-17T04:00:10;21.80;65.10
65582;DHT22;52231;40.090;18.348;2022-07-17T04:02:38;21.80;65.00
65582;DHT22;52231;40.090;18.348;2022-07-17T04:05:07;21.80;65.00
65582;DHT22;52231;40.090;18.348;2022-07-17T04:07:41;21.80;65.00
65582;DHT22;52231;40.090;18.348;2022-07-17T04:10:12;21.90;64.90
65582;DHT22;52231;40.090;18.348;2022-07-17T04:12:41;22.00;64.70
65582;DHT22;52231;40.090;18.348;2022-07-17T04:15:10;22.10;64.40
65582;DHT22;52231;40.090;18.348;2022-07-17T04:17:38;22.30;64.00
65582;DHT22;52231;40.090;18.348;2022-07-17T04:20:07;22.50;63.60
65582;DHT22;52231;40.090;18.348;2022-07-17T04:22:35;22.90;62.70
65582;DHT22;52231;40.090;18.348;2022-07-17T04:25:03;23.40;61.60
65582;DHT22;52231;40.090;18.348;2022-07-17T04:27:31;24.00;60.30
65582;DHT22;52231;40.090;18.348;2022-07-17T04:29:59;24.50;58.60
65582;DHT22;52231;40.090;18.348;2022-07-17T04:32:45;25.10;57.40
65582;DHT22;52231;40.090;18.348;2022-07-17T04:35:14;25.70;55.90
65582;DHT22;52231;40.090;18.348;2022-07-17T04:37:42;26.10;54.50
65582;DHT22;52231;40.090;18.348;2022-07-17T04:40:11;26.70;53.40
65582;DHT22;52231;40.090;18.348;2022-07-17T04:42:39;27.10;52.50
65582;DHT22;52231;40.090;18.348;2022-07-17T04:45:08;27.60;51.40
65582;DHT22;52231;40.090;18.348;2022-07-17T04:47:36;27.90;50.60
65582;DHT22;52231;40.090;18.348;2022-07-17T04:50:05;28.20;50.10
65582;DHT22;52231;40.090;18.348;2022-07-17T04:52:33;28.40;49.40
65582;DHT22;52231;40.090;18.348;2022-07-17T04:55:02;28.80;49.20
65582;DHT22;52231;40.090;18.348;2022-07-17T04:57:30;29.00;48.80
65582;DHT22;52231;40.090;18.348;2022-07-17T04:59:59;29.30;48.00
65582;DHT22;52231;40.090;18.348;2022-07-17T05:02:27;29.50;47.60
65582;DHT22;52231;40.090;18.348;2022-07-17T05:04:56;29.80;46.40
65582;DHT22;52231;40.090;18.348;2022-07-17T05:07:24;30.20;45.70
65582;DHT22;52231;40.090;18.348;2022-07-17T05:09:52;30.50;44.80
65582;DHT22;52231;40.090;18.348;2022-07-17T05:12:20;30.70;44.30
65582;DHT22;52231;40.090;18.348;2022-07-17T05:14:48;30.90;44.10
65582;DHT22;52231;40.090;18.348;2022-07-17T05:17:16;31.10;43.70
65582;DHT22;52231;40.090;18.348;2022-07-17T05:19:45;31.30;43.20
65582;DHT22;52231;40.090;18.348;2022-07-17T05:22:13;31.50;43.00
65582;DHT22;52231;40.090;18.348;2022-07-17T05:24:41;31.70;43.20
65582;DHT22;52231;40.090;18.348;2022-07-17T05:27:09;31.90;42.60
65582;DHT22;52231;40.090;18.348;2022-07-17T05:29:37;32.10;42.60
65582;DHT22;52231;40.090;18.348;2022-07-17T05:32:06;32.30;42.60
65582;DHT22;52231;40.090;18.348;2022-07-17T05:34:34;32.40;42.40
65582;DHT22;52231;40.090;18.348;2022-07-17T05:37:02;32.50;42.30
65582;DHT22;52231;40.090;18.348;2022-07-17T05:39:30;32.60;42.30
65582;DHT22;52231;40.090;18.348;2022-07-17T05:41:58;32.80;42.60
65582;DHT22;52231;40.090;18.348;2022-07-17T05:44:26;32.90;42.80
65582;DHT22;52231;40.090;18.348;2022-07-17T05:46:54;33.20;42.70
65582;DHT22;52231;40.090;18.348;2022-07-17T05:49:22;33.40;42.30
65582;DHT22;52231;40.090;18.348;2022-07-17T05:51:50;33.30;42.40
65582;DHT22;52231;40.090;18.348;2022-07-17T05:54:19;33.30;42.70
65582;DHT22;52231;40.090;18.348;2022-07-17T05:56:47;33.30;43.00
65582;DHT22;52231;40.090;18.348;2022-07-17T05:59:15;33.30;43.20
65582;DHT22;52231;40.090;18.348;2022-07-17T06:01:43;33.50;43.40
65582;DHT22;52231;40.090;18.348;2022-07-17T06:04:11;33.90;43.10
65582;DHT22;52231;40.090;18.348;2022-07-17T06:06:39;34.20;42.40
65582;DHT22;52231;40.090;18.348;2022-07-17T06:09:08;34.30;42.00
65582;DHT22;52231;40.090;18.348;2022-07-17T06:11:36;34.70;41.80
65582;DHT22;52231;40.090;18.348;2022-07-17T06:14:05;34.80;40.80
65582;DHT22;52231;40.090;18.348;2022-07-17T06:16:33;35.00;40.10
65582;DHT22;52231;40.090;18.348;2022-07-17T06:19:01;34.90;39.50
65582;DHT22;52231;40.090;18.348;2022-07-17T06:21:29;35.10;39.40
65582;DHT22;52231;40.090;18.348;2022-07-17T06:23:57;35.40;38.50
65582;DHT22;52231;40.090;18.348;2022-07-17T06:26:25;35.30;37.70
65582;DHT22;52231;40.090;18.348;2022-07-17T06:28:54;35.20;37.30
65582;DHT22;52231;40.090;18.348;2022-07-17T06:31:23;35.30;36.00
65582;DHT22;52231;40.090;18.348;2022-07-17T06:33:51;35.30;35.80
65582;DHT22;52231;40.090;18.348;2022-07-17T06:36:19;35.10;34.70
65582;DHT22;52231;40.090;18.348;2022-07-17T06:38:48;35.10;35.40
65582;DHT22;52231;40.090;18.348;2022-07-17T06:41:16;35.30;35.20
65582;DHT22;52231;40.090;18.348;2022-07-17T06:43:45;35.30;34.80
65582;DHT22;52231;40.090;18.348;2022-07-17T06:46:13;35.50;34.30
65582;DHT22;52231;40.090;18.348;2022-07-17T06:48:41;35.80;33.60
65582;DHT22;52231;40.090;18.348;2022-07-17T06:51:10;36.00;33.20
65582;DHT22;52231;40.090;18.348;2022-07-17T06:53:38;36.10;33.70
65582;DHT22;52231;40.090;18.348;2022-07-17T06:56:06;36.30;33.80
65582;DHT22;52231;40.090;18.348;2022-07-17T06:58:35;36.30;34.10
65582;DHT22;52231;40.090;18.348;2022-07-17T07:01:03;36.50;33.80
65582;DHT22;52231;40.090;18.348;2022-07-17T07:03:32;36.90;33.80
65582;DHT22;52231;40.090;18.348;2022-07-17T07:06:01;36.90;33.60
65582;DHT22;52231;40.090;18.348;2022-07-17T07:08:29;36.80;34.30
65582;DHT22;52231;40.090;18.348;2022-07-17T07:10:58;36.80;33.40
65582;DHT22;52231;40.090;18.348;2022-07-17T07:13:26;36.80;33.20
65582;DHT22;52231;40.090;18.348;2022-07-17T07:15:55;37.10;33.20
65582;DHT22;52231;40.090;18.348;2022-07-17T07:18:24;37.20;31.80
65582;DHT22;52231;40.090;18.348;2022-07-17T07:20:52;37.20;32.20
65582;DHT22;52231;40.090;18.348;2022-07-17T07:23:21;37.20;32.00
65582;DHT22;52231;40.090;18.348;2022-07-17T07:25:49;37.30;31.60
65582;DHT22;52231;40.090;18.348;2022-07-17T07:28:18;37.40;31.80
65582;DHT22;52231;40.090;18.348;2022-07-17T07:30:46;37.50;31.20
65582;DHT22;52231;40.090;18.348;2022-07-17T07:33:15;37.60;31.60
65582;DHT22;52231;40.090;18.348;2022-07-17T07:35:44;37.70;30.50
65582;DHT22;52231;40.090;18.348;2022-07-17T07:38:14;37.60;31.00
65582;DHT22;52231;40.090;18.348;2022-07-17T07:40:42;37.80;30.80
65582;DHT22;52231;40.090;18.348;2022-07-17T07:43:10;37.90;31.30
65582;DHT22;52231;40.090;18.348;2022-07-17T07:45:39;38.10;30.90
65582;DHT22;52231;40.090;18.348;2022-07-17T07:48:07;38.30;30.70
65582;DHT22;52231;40.090;18.348;2022-07-17T07:50:36;38.40;29.70
65582;DHT22;52231;40.090;18.348;2022-07-17T07:53:05;38.30;30.50
65582;DHT22;52231;40.090;18.348;2022-07-17T07:55:33;38.60;31.00
65582;DHT22;52231;40.090;18.348;2022-07-17T07:58:07;38.40;30.80
65582;DHT22;52231;40.090;18.348;2022-07-17T08:00:37;38.10;30.50
65582;DHT22;52231;40.090;18.348;2022-07-17T08:03:06;38.10;30.20
65582;DHT22;52231;40.090;18.348;2022-07-17T08:05:34;38.30;29.70
65582;DHT22;52231;40.090;18.348;2022-07-17T08:08:03;38.60;29.80
65582;DHT22;52231;40.090;18.348;2022-07-17T08:10:31;38.60;29.70
65582;DHT22;52231;40.090;18.348;2022-07-17T08:13:01;38.50;30.30
65582;DHT22;52231;40.090;18.348;2022-07-17T08:15:30;38.70;29.20
65582;DHT22;52231;40.090;18.348;2022-07-17T08:17:58;38.70;27.90
65582;DHT22;52231;40.090;18.348;2022-07-17T08:20:27;38.80;28.90
65582;DHT22;52231;40.090;18.348;2022-07-17T08:22:56;38.90;29.20
65582;DHT22;52231;40.090;18.348;2022-07-17T08:25:33;38.90;28.10
65582;DHT22;52231;40.090;18.348;2022-07-17T08:28:02;38.90;28.90
65582;DHT22;52231;40.090;18.348;2022-07-17T08:30:30;39.00;29.30
65582;DHT22;52231;40.090;18.348;2022-07-17T08:33:03;39.30;29.40
65582;DHT22;52231;40.090;18.348;2022-07-17T08:35:33;39.10;28.60
65582;DHT22;52231;40.090;18.348;2022-07-17T08:38:02;39.20;29.00
65582;DHT22;52231;40.090;18.348;2022-07-17T08:40:35;39.70;28.00
65582;DHT22;52231;40.090;18.348;2022-07-17T08:43:07;39.80;27.70
65582;DHT22;52231;40.090;18.348;2022-07-17T08:45:39;39.90;28.20
65582;DHT22;52231;40.090;18.348;2022-07-17T08:48:16;39.70;28.60
65582;DHT22;52231;40.090;18.348;2022-07-17T08:50:47;39.90;27.80
65582;DHT22;52231;40.090;18.348;2022-07-17T08:53:15;40.20;28.10
65582;DHT22;52231;40.090;18.348;2022-07-17T08:55:44;40.10;27.90
65582;DHT22;52231;40.090;18.348;2022-07-17T08:58:16;40.20;27.90
65582;DHT22;52231;40.090;18.348;2022-07-17T09:00:45;40.10;27.50
65582;DHT22;52231;40.090;18.348;2022-07-17T09:03:14;40.60;27.80
65582;DHT22;52231;40.090;18.348;2022-07-17T09:05:44;40.70;27.20
65582;DHT22;52231;40.090;18.348;2022-07-17T09:08:21;40.60;27.40
65582;DHT22;52231;40.090;18.348;2022-07-17T09:10:52;40.60;26.60
65582;DHT22;52231;40.090;18.348;2022-07-17T09:13:24;40.80;26.20
65582;DHT22;52231;40.090;18.348;2022-07-17T09:15:58;40.80;25.90
65582;DHT22;52231;40.090;18.348;2022-07-17T09:18:27;40.60;26.00
65582;DHT22;52231;40.090;18.348;2022-07-17T09:20:57;40.20;26.70
65582;DHT22;52231;40.090;18.348;2022-07-17T09:23:26;40.30;26.60
65582;DHT22;52231;40.090;18.348;2022-07-17T09:25:56;40.10;27.20
65582;DHT22;52231;40.090;18.348;2022-07-17T09:28:25;40.20;26.60
65582;DHT22;52231;40.090;18.348;2022-07-17T09:30:55;40.20;27.30
65582;DHT22;52231;40.090;18.348;2022-07-17T09:33:26;40.50;27.00
65582;DHT22;52231;40.090;18.348;2022-07-17T09:36:05;40.50;26.90
65582;DHT22;52231;40.090;18.348;2022-07-17T09:38:38;40.80;26.90
65582;DHT22;52231;40.090;18.348;2022-07-17T09:41:15;41.20;25.60
65582;DHT22;52231;40.090;18.348;2022-07-17T09:46:21;41.30;25.70
65582;DHT22;52231;40.090;18.348;2022-07-17T09:48:58;41.40;25.10
65582;DHT22;52231;40.090;18.348;2022-07-17T09:51:46;41.50;25.00
65582;DHT22;52231;40.090;18.348;2022-07-17T09:54:20;41.90;24.40
65582;DHT22;52231;40.090;18.348;2022-07-17T09:57:08;41.80;23.40
65582;DHT22;52231;40.090;18.348;2022-07-17T09:59:37;42.00;23.70
65582;DHT22;52231;40.090;18.348;2022-07-17T10:02:06;42.00;23.80
65582;DHT22;52231;40.090;18.348;2022-07-17T10:04:36;42.00;23.80
65582;DHT22;52231;40.090;18.348;2022-07-17T10:07:05;42.30;23.30
65582;DHT22;52231;40.090;18.348;2022-07-17T10:09:35;42.40;23.30
65582;DHT22;52231;40.090;18.348;2022-07-17T10:12:03;42.40;22.60
65582;DHT22;52231;40.090;18.348;2022-07-17T10:14:34;42.40;22.30
65582;DHT22;52231;40.090;18.348;2022-07-17T10:17:21;42.40;22.80
65582;DHT22;52231;40.090;18.348;2022-07-17T10:19:56;42.20;22.90
65582;DHT22;52231;40.090;18.348;2022-07-17T10:22:25;42.30;22.80
65582;DHT22;52231;40.090;18.348;2022-07-17T10:24:55;42.60;22.60
65582;DHT22;52231;40.090;18.348;2022-07-17T10:27:29;42.60;23.30
65582;DHT22;52231;40.090;18.348;2022-07-17T10:32:32;42.30;22.40
65582;DHT22;52231;40.090;18.348;2022-07-17T10:35:11;42.20;22.60
65582;DHT22;52231;40.090;18.348;2022-07-17T10:37:40;42.10;21.90
65582;DHT22;52231;40.090;18.348;2022-07-17T10:40:24;42.20;22.80
65582;DHT22;52231;40.090;18.348;2022-07-17T10:43:03;42.80;22.90
65582;DHT22;52231;40.090;18.348;2022-07-17T10:45:35;43.10;20.30
65582;DHT22;52231;40.090;18.348;2022-07-17T10:48:14;43.40;20.90
65582;DHT22;52231;40.090;18.348;2022-07-17T10:50:44;43.50;19.80
65582;DHT22;52231;40.090;18.348;2022-07-17T10:53:21;43.80;19.50
65582;DHT22;52231;40.090;18.348;2022-07-17T10:58:23;43.40;20.30
65582;DHT22;52231;40.090;18.348;2022-07-17T11:03:37;43.50;19.00
65582;DHT22;52231;40.090;18.348;2022-07-17T11:17:01;43.70;19.50
65582;DHT22;52231;40.090;18.348;2022-07-17T11:22:05;43.00;19.30
65582;DHT22;52231;40.090;18.348;2022-07-17T11:24:43;42.90;19.50
65582;DHT22;52231;40.090;18.348;2022-07-17T11:27:27;42.80;19.80
65582;DHT22;52231;40.090;18.348;2022-07-17T11:29:58;43.00;20.20
65582;DHT22;52231;40.090;18.348;2022-07-17T11:32:37;42.90;20.20
65582;DHT22;52231;40.090;18.348;2022-07-17T11:35:17;42.90;20.10
65582;DHT22;52231;40.090;18.348;2022-07-17T11:38:06;42.90;20.30
65582;DHT22;52231;40.090;18.348;2022-07-17T11:40:34;42.80;20.40
65582;DHT22;52231;40.090;18.348;2022-07-17T11:43:03;43.00;20.20
65582;DHT22;52231;40.090;18.348;2022-07-17T11:45:33;43.20;20.10
65582;DHT22;52231;40.090;18.348;2022-07-17T11:48:02;43.10;20.40
65582;DHT22;52231;40.090;18.348;2022-07-17T11:50:54;42.80;19.90
65582;DHT22;52231;40.090;18.348;2022-07-17T11:53:36;43.00;19.90
65582;DHT22;52231;40.090;18.348;2022-07-17T11:56:05;43.10;20.20
65582;DHT22;52231;40.090;18.348;2022-07-17T11:58:45;42.70;20.40
65582;DHT22;52231;40.090;18.348;2022-07-17T12:01:14;42.70;20.60
65582;DHT22;52231;40.090;18.348;2022-07-17T12:03:43;42.90;20.30
65582;DHT22;52231;40.090;18.348;2022-07-17T12:06:12;42.60;20.70
65582;DHT22;52231;40.090;18.348;2022-07-17T12:08:50;42.50;21.00
65582;DHT22;52231;40.090;18.348;2022-07-17T12:11:20;42.60;20.60
65582;DHT22;52231;40.090;18.348;2022-07-17T12:13:49;42.50;20.60
65582;DHT22;52231;40.090;18.348;2022-07-17T12:16:29;42.40;20.40
65582;DHT22;52231;40.090;18.348;2022-07-17T12:24:42;41.80;21.40
65582;DHT22;52231;40.090;18.348;2022-07-17T12:27:16;41.90;22.10
65582;DHT22;52231;40.090;18.348;2022-07-17T12:29:45;41.70;22.00
65582;DHT22;52231;40.090;18.348;2022-07-17T12:32:15;41.50;22.30
65582;DHT22;52231;40.090;18.348;2022-07-17T12:34:46;41.40;22.60
65582;DHT22;52231;40.090;18.348;2022-07-17T12:37:16;41.30;22.70
65582;DHT22;52231;40.090;18.348;2022-07-17T12:39:46;41.00;22.80
65582;DHT22;52231;40.090;18.348;2022-07-17T12:42:15;40.90;22.40
65582;DHT22;52231;40.090;18.348;2022-07-17T12:44:44;40.80;22.70
65582;DHT22;52231;40.090;18.348;2022-07-17T12:47:13;40.60;23.50
65582;DHT22;52231;40.090;18.348;2022-07-17T12:49:42;40.30;23.80
65582;DHT22;52231;40.090;18.348;2022-07-17T12:52:11;40.10;23.80
65582;DHT22;52231;40.090;18.348;2022-07-17T12:54:39;40.10;23.70
65582;DHT22;52231;40.090;18.348;2022-07-17T12:57:07;40.00;24.60
65582;DHT22;52231;40.090;18.348;2022-07-17T12:59:36;40.20;24.10
65582;DHT22;52231;40.090;18.348;2022-07-17T13:02:05;40.30;24.10
65582;DHT22;52231;40.090;18.348;2022-07-17T13:04:33;40.30;23.90
65582;DHT22;52231;40.090;18.348;2022-07-17T13:07:02;40.20;23.60
65582;DHT22;52231;40.090;18.348;2022-07-17T13:09:30;40.00;22.80
65582;DHT22;52231;40.090;18.348;2022-07-17T13:11:59;39.90;23.70
65582;DHT22;52231;40.090;18.348;2022-07-17T13:14:28;39.80;23.50
65582;DHT22;52231;40.090;18.348;2022-07-17T13:16:56;39.60;23.90
65582;DHT22;52231;40.090;18.348;2022-07-17T13:19:26;39.50;23.90
65582;DHT22;52231;40.090;18.348;2022-07-17T13:21:54;39.50;24.00
65582;DHT22;52231;40.090;18.348;2022-07-17T13:24:23;39.60;24.40
65582;DHT22;52231;40.090;18.348;2022-07-17T13:26:51;39.70;23.20
65582;DHT22;52231;40.090;18.348;2022-07-17T13:29:20;39.50;23.30
65582;DHT22;52231;40.090;18.348;2022-07-17T13:31:48;39.40;24.00
65582;DHT22;52231;40.090;18.348;2022-07-17T13:34:21;39.30;24.40
65582;DHT22;52231;40.090;18.348;2022-07-17T13:36:49;39.10;24.10
65582;DHT22;52231;40.090;18.348;2022-07-17T13:39:18;39.00;24.40
65582;DHT22;52231;40.090;18.348;2022-07-17T13:41:47;38.90;24.80
65582;DHT22;52231;40.090;18.348;2022-07-17T13:44:15;38.70;24.50
65582;DHT22;52231;40.090;18.348;2022-07-17T13:46:44;38.60;24.90
65582;DHT22;52231;40.090;18.348;2022-07-17T13:49:13;38.40;25.70
65582;DHT22;52231;40.090;18.348;2022-07-17T13:51:42;38.30;24.60
65582;DHT22;52231;40.090;18.348;2022-07-17T13:54:11;38.30;24.80
65582;DHT22;52231;40.090;18.348;2022-07-17T13:56:41;38.30;24.90
65582;DHT22;52231;40.090;18.348;2022-07-17T13:59:10;37.90;24.90
65582;DHT22;52231;40.090;18.348;2022-07-17T14:01:38;37.80;25.40
65582;DHT22;52231;40.090;18.348;2022-07-17T14:04:07;37.80;26.20
65582;DHT22;52231;40.090;18.348;2022-07-17T14:06:35;37.60;25.90
65582;DHT22;52231;40.090;18.348;2022-07-17T14:09:03;37.40;26.30
65582;DHT22;52231;40.090;18.348;2022-07-17T14:11:32;37.40;26.40
65582;DHT22;52231;40.090;18.348;2022-07-17T14:14:00;37.50;25.60
65582;DHT22;52231;40.090;18.348;2022-07-17T14:16:29;37.40;25.40
65582;DHT22;52231;40.090;18.348;2022-07-17T14:18:59;37.10;25.80
65582;DHT22;52231;40.090;18.348;2022-07-17T14:21:36;37.10;26.00
65582;DHT22;52231;40.090;18.348;2022-07-17T14:24:05;37.10;26.30
65582;DHT22;52231;40.090;18.348;2022-07-17T14:26:34;37.00;26.30
65582;DHT22;52231;40.090;18.348;2022-07-17T14:29:04;37.00;26.50
65582;DHT22;52231;40.090;18.348;2022-07-17T14:31:50;36.90;27.20
65582;DHT22;52231;40.090;18.348;2022-07-17T14:34:19;37.00;26.90
65582;DHT22;52231;40.090;18.348;2022-07-17T14:36:47;37.00;26.50
65582;DHT22;52231;40.090;18.348;2022-07-17T14:39:17;36.90;25.50
65582;DHT22;52231;40.090;18.348;2022-07-17T14:41:45;36.80;26.40
65582;DHT22;52231;40.090;18.348;2022-07-17T14:44:14;36.70;27.20
65582;DHT22;52231;40.090;18.348;2022-07-17T14:46:43;36.70;26.80
65582;DHT22;52231;40.090;18.348;2022-07-17T14:49:13;36.70;27.50
65582;DHT22;52231;40.090;18.348;2022-07-17T14:51:41;36.50;27.30
65582;DHT22;52231;40.090;18.348;2022-07-17T14:54:10;36.40;27.90
65582;DHT22;52231;40.090;18.348;2022-07-17T14:56:38;36.30;27.70
65582;DHT22;52231;40.090;18.348;2022-07-17T14:59:08;36.30;27.00
65582;DHT22;52231;40.090;18.348;2022-07-17T15:01:37;36.30;27.10
65582;DHT22;52231;40.090;18.348;2022-07-17T15:04:05;36.30;27.30
65582;DHT22;52231;40.090;18.348;2022-07-17T15:06:33;36.30;26.80
65582;DHT22;52231;40.090;18.348;2022-07-17T15:09:02;36.30;27.80
65582;DHT22;52231;40.090;18.348;2022-07-17T15:11:31;36.30;27.40
65582;DHT22;52231;40.090;18.348;2022-07-17T15:14:00;36.20;27.40
65582;DHT22;52231;40.090;18.348;2022-07-17T15:16:28;36.10;27.60
65582;DHT22;52231;40.090;18.348;2022-07-17T15:18:57;35.90;27.90
65582;DHT22;52231;40.090;18.348;2022-07-17T15:21:26;36.00;27.80
65582;DHT22;52231;40.090;18.348;2022-07-17T15:24:15;35.90;28.20
65582;DHT22;52231;40.090;18.348;2022-07-17T15:26:43;35.90;28.40
65582;DHT22;52231;40.090;18.348;2022-07-17T15:29:17;35.90;28.20
65582;DHT22;52231;40.090;18.348;2022-07-17T15:31:47;35.80;28.60
65582;DHT22;52231;40.090;18.348;2022-07-17T15:34:16;35.70;28.50
65582;DHT22;52231;40.090;18.348;2022-07-17T15:36:44;35.70;28.90
65582;DHT22;52231;40.090;18.348;2022-07-17T15:39:12;35.70;29.20
65582;DHT22;52231;40.090;18.348;2022-07-17T15:41:40;35.70;29.20
65582;DHT22;52231;40.090;18.348;2022-07-17T15:44:08;35.70;28.70
65582;DHT22;52231;40.090;18.348;2022-07-17T15:46:37;35.60;28.80
65582;DHT22;52231;40.090;18.348;2022-07-17T15:49:05;35.50;29.40
65582;DHT22;52231;40.090;18.348;2022-07-17T15:51:33;35.40;29.40
65582;DHT22;52231;40.090;18.348;2022-07-17T15:54:05;35.30;29.30
65582;DHT22;52231;40.090;18.348;2022-07-17T15:56:36;35.10;29.50
65582;DHT22;52231;40.090;18.348;2022-07-17T15:59:05;35.10;30.30
65582;DHT22;52231;40.090;18.348;2022-07-17T16:01:33;34.90;29.90